createdAt,value
2017-10-29T00:00:48.444Z,998.35
2017-10-29T00:01:48.451Z,998.28
2017-10-29T00:02:48.401Z,998.26
2017-10-29T00:03:48.377Z,998.14
2017-10-29T00:04:48.368Z,998.16
2017-10-29T00:05:48.385Z,998.19
2017-10-29T00:06:48.326Z,998.15
2017-10-29T00:07:48.323Z,998.12
2017-10-29T00:08:48.298Z,998.08
2017-10-29T00:09:48.299Z,998.02
2017-10-29T00:10:48.293Z,997.98
2017-10-29T00:11:48.244Z,997.91
2017-10-29T00:12:48.220Z,997.96
2017-10-29T00:13:48.208Z,997.97
2017-10-29T00:14:48.195Z,997.89
2017-10-29T00:15:48.216Z,997.88
2017-10-29T00:16:48.149Z,997.92
2017-10-29T00:17:48.132Z,997.90
2017-10-29T00:18:48.125Z,997.78
2017-10-29T00:19:48.100Z,997.81
2017-10-29T00:20:48.138Z,997.79
2017-10-29T00:21:48.062Z,997.72
2017-10-29T00:22:48.055Z,997.79
2017-10-29T00:23:48.026Z,997.79
2017-10-29T00:24:48.014Z,997.73
2017-10-29T00:25:48.034Z,997.67
2017-10-29T00:26:47.974Z,997.86
2017-10-29T00:27:47.952Z,997.82
2017-10-29T00:28:47.938Z,997.85
2017-10-29T00:29:47.962Z,997.79
2017-10-29T00:30:47.908Z,997.77
2017-10-29T00:31:47.881Z,997.78
2017-10-29T00:32:47.863Z,997.75
2017-10-29T00:33:47.848Z,997.81
2017-10-29T00:34:47.889Z,997.78
2017-10-29T00:35:47.807Z,997.85
2017-10-29T00:36:47.804Z,997.86
2017-10-29T00:37:47.817Z,997.77
2017-10-29T00:38:47.756Z,997.82
2017-10-29T00:39:47.774Z,997.75
2017-10-29T00:40:47.739Z,997.75
2017-10-29T00:41:47.708Z,997.80
2017-10-29T00:42:47.685Z,997.77
2017-10-29T00:43:47.663Z,997.76
2017-10-29T00:44:47.685Z,997.67
2017-10-29T00:45:47.637Z,997.69
2017-10-29T00:46:47.611Z,997.63
2017-10-29T00:47:47.601Z,997.61
2017-10-29T00:48:47.618Z,997.59
2017-10-29T00:49:47.563Z,997.53
2017-10-29T00:50:47.539Z,997.42
2017-10-29T00:51:47.531Z,997.46
2017-10-29T00:52:47.508Z,997.46
2017-10-29T00:53:47.526Z,997.52
2017-10-29T00:54:47.508Z,997.48
2017-10-29T00:55:47.456Z,997.47
2017-10-29T00:56:47.434Z,997.48
2017-10-29T00:57:47.443Z,997.48
2017-10-29T00:58:47.400Z,997.45
2017-10-29T00:59:47.418Z,997.35
2017-10-29T01:00:47.363Z,997.35
2017-10-29T01:01:47.346Z,997.36
2017-10-29T01:02:47.331Z,997.29
2017-10-29T01:03:47.309Z,997.32
2017-10-29T01:04:47.348Z,997.25
2017-10-29T01:05:47.275Z,997.32
2017-10-29T01:06:47.264Z,997.33
2017-10-29T01:07:47.239Z,997.30
2017-10-29T01:08:47.224Z,997.24
2017-10-29T01:09:47.247Z,997.22
2017-10-29T01:10:47.235Z,997.20
2017-10-29T01:11:47.167Z,997.24
2017-10-29T01:12:47.151Z,997.07
2017-10-29T01:13:47.143Z,997.17
2017-10-29T01:14:47.118Z,997.05
2017-10-29T01:15:47.161Z,997.12
2017-10-29T01:16:47.075Z,996.89
2017-10-29T01:17:47.067Z,996.92
2017-10-29T01:18:47.063Z,996.88
2017-10-29T01:19:47.028Z,996.95
2017-10-29T01:20:47.059Z,996.97
2017-10-29T01:21:46.993Z,996.92
2017-10-29T01:22:46.982Z,996.93
2017-10-29T01:23:46.950Z,996.93
2017-10-29T01:24:46.932Z,996.86
2017-10-29T01:25:46.963Z,996.96
2017-10-29T01:26:46.906Z,996.92
2017-10-29T01:27:46.891Z,996.88
2017-10-29T01:28:46.874Z,996.79
2017-10-29T01:29:46.856Z,996.81
2017-10-29T01:30:46.864Z,996.92
2017-10-29T01:31:46.804Z,996.84
2017-10-29T01:32:46.798Z,996.76
2017-10-29T01:33:46.781Z,996.69
2017-10-29T01:34:46.765Z,996.78
2017-10-29T01:35:46.770Z,996.79
2017-10-29T01:36:46.735Z,996.48
2017-10-29T01:37:46.701Z,996.51
2017-10-29T01:38:46.680Z,996.69
2017-10-29T01:39:46.681Z,996.68
2017-10-29T01:40:46.689Z,996.74
2017-10-29T01:41:46.626Z,996.62
2017-10-29T01:42:46.612Z,996.63
2017-10-29T01:43:46.601Z,996.65
2017-10-29T01:44:46.581Z,996.67
2017-10-29T01:45:46.600Z,996.67
2017-10-29T01:46:46.537Z,996.60
2017-10-29T01:47:46.529Z,996.57
2017-10-29T01:48:46.504Z,996.54
2017-10-29T01:49:46.483Z,996.45
2017-10-29T01:50:46.523Z,996.47
2017-10-29T01:51:46.454Z,996.37
2017-10-29T01:52:46.431Z,996.43
2017-10-29T01:53:46.408Z,996.38
2017-10-29T01:54:46.390Z,996.31
2017-10-29T01:55:46.427Z,996.39
2017-10-29T01:56:46.354Z,996.42
2017-10-29T01:57:46.337Z,996.36
2017-10-29T01:58:46.323Z,996.36
2017-10-29T01:59:46.305Z,996.36
2017-10-29T02:00:46.324Z,996.28
2017-10-29T02:01:46.264Z,996.30
2017-10-29T02:02:46.250Z,996.32
2017-10-29T02:03:46.232Z,996.26
2017-10-29T02:04:46.210Z,996.29
2017-10-29T02:05:46.228Z,996.34
2017-10-29T02:06:46.187Z,996.25
2017-10-29T02:07:46.159Z,996.36
2017-10-29T02:08:46.141Z,996.30
2017-10-29T02:09:46.165Z,996.31
2017-10-29T02:10:46.105Z,996.41
2017-10-29T02:11:46.116Z,996.19
2017-10-29T02:12:46.067Z,996.20
2017-10-29T02:13:46.068Z,996.16
2017-10-29T02:14:46.031Z,996.08
2017-10-29T02:15:46.016Z,996.01
2017-10-29T02:16:46.028Z,996.03
2017-10-29T02:17:46.004Z,996.08
2017-10-29T02:18:45.957Z,996.06
2017-10-29T02:19:45.947Z,995.97
2017-10-29T02:20:45.928Z,996.01
2017-10-29T02:21:45.949Z,995.91
2017-10-29T02:22:45.887Z,995.99
2017-10-29T02:23:45.893Z,995.89
2017-10-29T02:24:45.850Z,995.87
2017-10-29T02:25:45.831Z,995.98
2017-10-29T02:26:45.858Z,995.99
2017-10-29T02:27:45.796Z,995.96
2017-10-29T02:28:45.779Z,996.00
2017-10-29T02:29:45.766Z,995.96
2017-10-29T02:30:45.743Z,995.96
2017-10-29T02:31:45.767Z,995.96
2017-10-29T02:32:45.714Z,996.01
2017-10-29T02:33:45.686Z,996.10
2017-10-29T02:34:45.667Z,996.06
2017-10-29T02:35:45.651Z,996.03
2017-10-29T02:36:45.669Z,996.07
2017-10-29T02:37:45.615Z,996.15
2017-10-29T02:38:45.600Z,996.11
2017-10-29T02:39:45.613Z,996.11
2017-10-29T02:40:45.561Z,996.44
2017-10-29T02:41:45.552Z,996.28
2017-10-29T02:42:45.535Z,996.11
2017-10-29T02:43:45.514Z,996.03
2017-10-29T02:44:45.520Z,996.19
2017-10-29T02:45:45.472Z,996.22
2017-10-29T02:46:45.452Z,996.22
2017-10-29T02:47:45.476Z,996.24
2017-10-29T02:48:45.421Z,996.05
2017-10-29T02:49:45.433Z,996.15
2017-10-29T02:50:45.377Z,996.10
2017-10-29T02:51:45.365Z,996.07
2017-10-29T02:52:45.385Z,996.04
2017-10-29T02:53:45.325Z,996.04
2017-10-29T02:54:45.302Z,996.06
2017-10-29T02:55:45.295Z,996.06
2017-10-29T02:56:45.269Z,996.05
2017-10-29T02:57:45.288Z,996.20
2017-10-29T02:58:45.233Z,996.09
2017-10-29T02:59:45.276Z,996.04
2017-10-29T03:00:45.205Z,996.05
2017-10-29T03:01:45.178Z,996.15
2017-10-29T03:02:45.207Z,996.13
2017-10-29T03:03:45.144Z,996.20
2017-10-29T03:04:45.119Z,996.34
2017-10-29T03:05:45.108Z,996.35
2017-10-29T03:06:45.083Z,996.33
2017-10-29T03:07:45.116Z,996.37
2017-10-29T03:08:45.050Z,996.43
2017-10-29T03:09:45.030Z,996.31
2017-10-29T03:10:45.011Z,996.45
2017-10-29T03:11:44.993Z,996.51
2017-10-29T03:12:45.014Z,996.66
2017-10-29T03:13:44.954Z,996.75
2017-10-29T03:14:44.934Z,996.72
2017-10-29T03:15:44.948Z,996.96
2017-10-29T03:16:44.898Z,996.96
2017-10-29T03:17:44.900Z,996.99
2017-10-29T03:18:44.886Z,996.95
2017-10-29T03:19:44.855Z,997.06
2017-10-29T03:20:44.860Z,997.10
2017-10-29T03:21:44.812Z,997.10
2017-10-29T03:22:44.786Z,997.19
2017-10-29T03:23:44.778Z,997.35
2017-10-29T03:24:44.762Z,997.18
2017-10-29T03:25:44.765Z,997.25
2017-10-29T03:26:44.712Z,997.29
2017-10-29T03:27:44.701Z,997.36
2017-10-29T03:28:53.077Z,997.29
2017-10-29T03:29:52.603Z,997.08
2017-10-29T03:30:44.642Z,997.24
2017-10-29T03:31:44.625Z,997.19
2017-10-29T03:32:44.600Z,997.32
2017-10-29T03:33:44.617Z,997.26
2017-10-29T03:34:44.581Z,997.18
2017-10-29T03:35:44.551Z,997.17
2017-10-29T03:36:44.526Z,997.11
2017-10-29T03:37:44.545Z,997.21
2017-10-29T03:38:44.539Z,997.17
2017-10-29T03:39:44.474Z,997.24
2017-10-29T03:40:44.468Z,997.25
2017-10-29T03:41:44.435Z,997.17
2017-10-29T03:42:44.412Z,997.36
2017-10-29T03:43:44.429Z,997.25
2017-10-29T03:44:44.381Z,997.30
2017-10-29T03:45:44.354Z,997.31
2017-10-29T03:46:44.334Z,997.27
2017-10-29T03:47:44.354Z,997.27
2017-10-29T03:48:44.295Z,997.29
2017-10-29T03:49:44.312Z,997.36
2017-10-29T03:50:44.267Z,997.43
2017-10-29T03:51:44.247Z,997.41
2017-10-29T03:52:44.230Z,997.47
2017-10-29T03:53:44.203Z,997.47
2017-10-29T03:54:44.226Z,997.45
2017-10-29T03:55:44.170Z,997.41
2017-10-29T03:56:44.159Z,997.44
2017-10-29T03:57:44.130Z,997.40
2017-10-29T03:58:44.147Z,997.43
2017-10-29T03:59:44.095Z,997.39
2017-10-29T04:00:44.118Z,997.37
2017-10-29T04:01:44.056Z,997.40
2017-10-29T04:02:44.032Z,997.34
2017-10-29T04:03:44.016Z,997.38
2017-10-29T04:04:44.005Z,997.45
2017-10-29T04:05:44.012Z,997.30
2017-10-29T04:06:43.997Z,997.34
2017-10-29T04:07:43.938Z,997.38
2017-10-29T04:08:43.924Z,997.50
2017-10-29T04:09:43.903Z,997.54
2017-10-29T04:10:43.921Z,997.49
2017-10-29T04:11:43.866Z,997.46
2017-10-29T04:12:43.850Z,997.52
2017-10-29T04:13:43.870Z,997.44
2017-10-29T04:14:43.802Z,997.45
2017-10-29T04:15:43.793Z,997.50
2017-10-29T04:16:43.766Z,997.44
2017-10-29T04:17:43.753Z,997.42
2017-10-29T04:18:43.766Z,997.45
2017-10-29T04:19:43.706Z,997.50
2017-10-29T04:20:43.689Z,997.48
2017-10-29T04:21:43.676Z,997.58
2017-10-29T04:22:43.697Z,997.59
2017-10-29T04:23:43.632Z,997.60
2017-10-29T04:24:43.618Z,997.66
2017-10-29T04:25:43.590Z,997.80
2017-10-29T04:26:43.571Z,997.66
2017-10-29T04:27:43.588Z,997.71
2017-10-29T04:28:43.533Z,997.79
2017-10-29T04:29:43.520Z,997.69
2017-10-29T04:30:43.499Z,997.77
2017-10-29T04:31:43.474Z,997.81
2017-10-29T04:32:43.490Z,997.88
2017-10-29T04:33:43.439Z,997.87
2017-10-29T04:34:43.432Z,997.84
2017-10-29T04:35:51.181Z,997.88
2017-10-29T04:36:53.153Z,997.87
2017-10-29T04:37:43.361Z,997.96
2017-10-29T04:38:53.191Z,997.89
2017-10-29T04:39:43.327Z,998.00
2017-10-29T04:40:43.298Z,998.07
2017-10-29T04:41:43.337Z,997.98
2017-10-29T04:42:43.263Z,998.06
2017-10-29T04:43:43.241Z,997.97
2017-10-29T04:44:43.225Z,998.04
2017-10-29T04:45:43.204Z,998.14
2017-10-29T04:46:43.230Z,998.11
2017-10-29T04:47:43.163Z,998.24
2017-10-29T04:48:43.146Z,998.10
2017-10-29T04:49:43.133Z,998.13
2017-10-29T04:50:43.105Z,998.21
2017-10-29T04:51:43.122Z,998.19
2017-10-29T04:52:43.066Z,998.15
2017-10-29T04:53:43.051Z,998.27
2017-10-29T04:54:43.031Z,998.31
2017-10-29T04:55:43.005Z,998.33
2017-10-29T04:56:43.037Z,998.28
2017-10-29T04:57:42.975Z,998.30
2017-10-29T04:58:42.954Z,998.47
2017-10-29T04:59:42.932Z,998.47
2017-10-29T05:00:42.909Z,998.41
2017-10-29T05:01:42.937Z,998.44
2017-10-29T05:02:42.884Z,998.49
2017-10-29T05:03:42.851Z,998.55
2017-10-29T05:04:42.830Z,998.49
2017-10-29T05:05:42.812Z,998.58
2017-10-29T05:06:42.854Z,998.57
2017-10-29T05:07:42.779Z,998.60
2017-10-29T05:08:42.757Z,998.57
2017-10-29T05:09:42.744Z,998.59
2017-10-29T05:10:42.728Z,998.55
2017-10-29T05:11:42.736Z,998.65
2017-10-29T05:12:42.677Z,998.78
2017-10-29T05:13:42.660Z,998.73
2017-10-29T05:14:42.657Z,998.83
2017-10-29T05:15:42.619Z,998.79
2017-10-29T05:16:42.648Z,998.88
2017-10-29T05:17:42.586Z,998.92
2017-10-29T05:18:42.589Z,998.86
2017-10-29T05:19:42.542Z,998.92
2017-10-29T05:20:42.530Z,998.94
2017-10-29T05:21:42.541Z,998.95
2017-10-29T05:22:42.505Z,999.07
2017-10-29T05:23:42.513Z,999.02
2017-10-29T05:24:42.448Z,999.10
2017-10-29T05:25:42.429Z,999.09
2017-10-29T05:26:42.425Z,999.18
2017-10-29T05:27:42.403Z,999.14
2017-10-29T05:28:42.416Z,999.24
2017-10-29T05:29:42.353Z,999.22
2017-10-29T05:30:42.330Z,999.16
2017-10-29T05:31:42.361Z,999.29
2017-10-29T05:32:42.336Z,999.22
2017-10-29T05:33:42.280Z,999.12
2017-10-29T05:34:42.254Z,999.26
2017-10-29T05:35:42.242Z,999.27
2017-10-29T05:36:42.260Z,999.24
2017-10-29T05:37:42.199Z,999.26
2017-10-29T05:38:42.174Z,999.25
2017-10-29T05:39:42.158Z,999.35
2017-10-29T05:40:42.182Z,999.37
2017-10-29T05:41:42.125Z,999.37
2017-10-29T05:42:42.099Z,999.56
2017-10-29T05:43:42.081Z,999.53
2017-10-29T05:44:42.060Z,999.50
2017-10-29T05:45:42.079Z,999.42
2017-10-29T05:46:42.021Z,999.54
2017-10-29T05:47:42.005Z,999.49
2017-10-29T05:48:49.785Z,999.44
2017-10-29T05:49:41.980Z,999.38
2017-10-29T05:50:41.946Z,999.45
2017-10-29T05:51:41.928Z,999.47
2017-10-29T05:52:41.908Z,999.53
2017-10-29T05:53:41.933Z,999.63
2017-10-29T05:54:41.872Z,999.61
2017-10-29T05:55:41.849Z,999.66
2017-10-29T05:56:41.829Z,999.64
2017-10-29T05:57:41.867Z,999.78
2017-10-29T05:58:41.797Z,999.78
2017-10-29T05:59:41.775Z,999.92
2017-10-29T06:00:41.762Z,999.86
2017-10-29T06:01:41.732Z,999.95
2017-10-29T06:02:41.771Z,999.98
2017-10-29T06:03:41.699Z,1000.03
2017-10-29T06:04:41.675Z,1000.04
2017-10-29T06:05:41.688Z,1000.11
2017-10-29T06:06:41.634Z,1000.14
2017-10-29T06:07:41.620Z,1000.11
2017-10-29T06:08:41.609Z,1000.20
2017-10-29T06:09:41.574Z,1000.28
2017-10-29T06:10:41.589Z,1000.26
2017-10-29T06:11:41.586Z,1000.20
2017-10-29T06:12:41.521Z,1000.31
2017-10-29T06:13:41.498Z,1000.31
2017-10-29T06:14:41.474Z,1000.29
2017-10-29T06:15:41.454Z,1000.37
2017-10-29T06:16:41.498Z,1000.40
2017-10-29T06:17:41.422Z,1000.40
2017-10-29T06:18:41.398Z,1000.38
2017-10-29T06:19:41.378Z,1000.48
2017-10-29T06:20:51.277Z,1000.49
2017-10-29T06:21:41.384Z,1000.56
2017-10-29T06:22:41.317Z,1000.50
2017-10-29T06:23:41.295Z,1000.62
2017-10-29T06:24:41.284Z,1000.64
2017-10-29T06:25:41.318Z,1000.67
2017-10-29T06:26:41.241Z,1000.69
2017-10-29T06:27:41.220Z,1000.73
2017-10-29T06:28:41.208Z,1000.60
2017-10-29T06:29:41.201Z,1000.51
2017-10-29T06:30:41.202Z,1000.70
2017-10-29T06:31:41.142Z,1000.77
2017-10-29T06:32:41.121Z,1000.83
2017-10-29T06:33:41.101Z,1000.85
2017-10-29T06:34:41.079Z,1000.89
2017-10-29T06:35:41.103Z,1000.91
2017-10-29T06:36:41.043Z,1000.96
2017-10-29T06:37:41.021Z,1000.98
2017-10-29T06:38:41.006Z,1000.94
2017-10-29T06:39:40.985Z,1000.85
2017-10-29T06:40:40.999Z,1001.00
2017-10-29T06:41:40.941Z,1000.96
2017-10-29T06:42:40.963Z,1001.02
2017-10-29T06:43:40.902Z,1001.01
2017-10-29T06:44:40.887Z,1001.03
2017-10-29T06:45:40.863Z,1001.05
2017-10-29T06:46:40.845Z,1001.07
2017-10-29T06:47:40.870Z,1001.17
2017-10-29T06:48:40.804Z,1001.19
2017-10-29T06:49:40.783Z,1001.37
2017-10-29T06:50:40.765Z,1001.28
2017-10-29T06:51:40.740Z,1001.32
2017-10-29T06:52:40.757Z,1001.30
2017-10-29T06:53:40.708Z,1001.35
2017-10-29T06:54:40.725Z,1001.43
2017-10-29T06:55:40.667Z,1001.47
2017-10-29T06:56:40.656Z,1001.54
2017-10-29T06:57:40.630Z,1001.47
2017-10-29T06:58:48.878Z,1001.43
2017-10-29T06:59:50.400Z,1001.44
2017-10-29T07:00:40.573Z,1001.58
2017-10-29T07:01:40.554Z,1001.53
2017-10-29T07:02:40.563Z,1001.54
2017-10-29T07:03:40.517Z,1001.65
2017-10-29T07:04:40.517Z,1001.65
2017-10-29T07:05:40.477Z,1001.77
2017-10-29T07:06:40.447Z,1001.81
2017-10-29T07:07:40.450Z,1001.76
2017-10-29T07:08:40.459Z,1001.70
2017-10-29T07:09:40.395Z,1001.73
2017-10-29T07:10:40.371Z,1001.86
2017-10-29T07:11:40.364Z,1001.87
2017-10-29T07:12:40.341Z,1001.88
2017-10-29T07:13:40.361Z,1001.93
2017-10-29T07:14:40.301Z,1001.88
2017-10-29T07:15:40.336Z,1001.84
2017-10-29T07:16:40.275Z,1001.87
2017-10-29T07:17:40.253Z,1001.97
2017-10-29T07:18:40.237Z,1001.94
2017-10-29T07:19:40.205Z,1002.00
2017-10-29T07:20:40.232Z,1002.01
2017-10-29T07:21:40.169Z,1002.05
2017-10-29T07:22:40.149Z,1002.07
2017-10-29T07:23:40.125Z,1002.13
2017-10-29T07:24:40.174Z,1002.19
2017-10-29T07:25:40.096Z,1002.25
2017-10-29T07:26:40.071Z,1002.29
2017-10-29T07:27:40.059Z,1002.62
2017-10-29T07:28:40.032Z,1002.49
2017-10-29T07:29:40.064Z,1002.70
2017-10-29T07:30:40.028Z,1002.44
2017-10-29T07:31:39.977Z,1002.59
2017-10-29T07:32:39.960Z,1002.78
2017-10-29T07:33:39.955Z,1002.83
2017-10-29T07:34:39.959Z,1002.76
2017-10-29T07:35:39.943Z,1002.76
2017-10-29T07:36:39.919Z,1002.98
2017-10-29T07:37:39.880Z,1003.07
2017-10-29T07:38:39.850Z,1002.88
2017-10-29T07:39:39.844Z,1002.75
2017-10-29T07:40:39.830Z,1002.35
2017-10-29T07:41:39.838Z,1002.45
2017-10-29T07:42:39.834Z,1002.50
2017-10-29T07:43:39.762Z,1002.52
2017-10-29T07:44:39.748Z,1002.74
2017-10-29T07:45:39.726Z,1002.84
2017-10-29T07:46:39.717Z,1002.98
2017-10-29T07:47:39.740Z,1002.77
2017-10-29T07:48:39.679Z,1003.08
2017-10-29T07:49:39.658Z,1003.32
2017-10-29T07:50:39.697Z,1003.38
2017-10-29T07:51:39.629Z,1003.48
2017-10-29T07:52:39.608Z,1003.46
2017-10-29T07:53:39.595Z,1003.42
2017-10-29T07:54:39.574Z,1003.25
2017-10-29T07:55:39.591Z,1002.96
2017-10-29T07:56:39.538Z,1003.15
2017-10-29T07:57:39.534Z,1003.35
2017-10-29T07:58:39.508Z,1003.31
2017-10-29T07:59:39.488Z,1003.49
2017-10-29T08:00:39.513Z,1003.37
2017-10-29T08:01:39.461Z,1003.40
2017-10-29T08:02:39.473Z,1003.61
2017-10-29T08:03:39.430Z,1003.72
2017-10-29T08:04:39.411Z,1003.66
2017-10-29T08:05:39.399Z,1003.77
2017-10-29T08:06:47.454Z,1003.69
2017-10-29T08:07:39.368Z,1003.63
2017-10-29T08:08:48.937Z,1003.84
2017-10-29T08:09:48.971Z,1003.93
2017-10-29T08:10:39.313Z,1003.67
2017-10-29T08:11:39.305Z,1003.42
2017-10-29T08:12:39.323Z,1003.95
2017-10-29T08:13:39.266Z,1004.18
2017-10-29T08:14:39.288Z,1004.19
2017-10-29T08:15:39.236Z,1003.59
2017-10-29T08:16:39.229Z,1003.44
2017-10-29T08:17:39.260Z,1003.41
2017-10-29T08:18:39.188Z,1003.97
2017-10-29T08:19:39.188Z,1003.95
2017-10-29T08:20:39.166Z,1004.04
2017-10-29T08:21:39.149Z,1003.88
2017-10-29T08:22:39.167Z,1004.12
2017-10-29T08:23:39.170Z,1004.22
2017-10-29T08:24:39.104Z,1004.30
2017-10-29T08:25:39.130Z,1004.17
2017-10-29T08:26:39.072Z,1003.84
2017-10-29T08:27:39.059Z,1003.56
2017-10-29T08:28:39.097Z,1003.73
2017-10-29T08:29:39.039Z,1004.19
2017-10-29T08:30:39.020Z,1004.24
2017-10-29T08:31:39.017Z,1004.33
2017-10-29T08:32:38.999Z,1004.30
2017-10-29T08:33:39.026Z,1004.23
2017-10-29T08:34:50.518Z,1004.25
2017-10-29T08:35:39.099Z,1004.33
2017-10-29T08:36:38.955Z,1004.34
2017-10-29T08:37:38.977Z,1004.22
2017-10-29T08:38:38.903Z,1004.36
2017-10-29T08:39:38.890Z,1004.47
2017-10-29T08:40:38.876Z,1004.41
2017-10-29T08:41:38.858Z,1004.63
2017-10-29T08:42:38.883Z,1004.15
2017-10-29T08:43:38.831Z,1003.92
2017-10-29T08:44:38.831Z,1004.16
2017-10-29T08:45:38.805Z,1004.56
2017-10-29T08:46:38.834Z,1004.62
2017-10-29T08:47:38.779Z,1004.58
2017-10-29T08:48:38.761Z,1004.60
2017-10-29T08:49:38.796Z,1004.73
2017-10-29T08:50:38.743Z,1004.71
2017-10-29T08:51:38.723Z,1004.67
2017-10-29T08:52:38.715Z,1004.68
2017-10-29T08:53:38.697Z,1004.64
2017-10-29T08:54:38.724Z,1004.73
2017-10-29T08:55:38.679Z,1004.77
2017-10-29T08:56:38.670Z,1004.76
2017-10-29T08:57:38.646Z,1004.89
2017-10-29T08:58:38.627Z,1004.56
2017-10-29T08:59:38.664Z,1005.01
2017-10-29T09:00:38.613Z,1004.44
2017-10-29T09:01:38.590Z,1004.24
2017-10-29T09:02:38.579Z,1004.46
2017-10-29T09:03:38.563Z,1004.49
2017-10-29T09:04:38.610Z,1005.34
2017-10-29T09:05:38.642Z,1004.57
2017-10-29T09:06:38.525Z,1004.57
2017-10-29T09:07:38.513Z,1004.27
2017-10-29T09:08:38.503Z,1004.27
2017-10-29T09:09:38.523Z,1004.20
2017-10-29T09:10:38.474Z,1004.36
2017-10-29T09:11:38.459Z,1004.39
2017-10-29T09:12:38.444Z,1004.56
2017-10-29T09:13:38.490Z,1004.55
2017-10-29T09:14:38.417Z,1004.27
2017-10-29T09:15:38.426Z,1004.32
2017-10-29T09:16:38.412Z,1004.30
2017-10-29T09:17:38.380Z,1004.51
2017-10-29T09:18:38.405Z,1005.14
2017-10-29T09:19:38.437Z,1005.21
2017-10-29T09:20:38.345Z,1005.32
2017-10-29T09:21:38.332Z,1004.87
2017-10-29T09:22:38.315Z,1005.49
2017-10-29T09:23:38.333Z,1005.12
2017-10-29T09:24:38.343Z,1004.85
2017-10-29T09:25:38.293Z,1005.19
2017-10-29T09:26:38.263Z,1005.54
2017-10-29T09:27:38.239Z,1005.68
2017-10-29T09:28:38.228Z,1005.65
2017-10-29T09:29:38.251Z,1005.70
2017-10-29T09:30:38.196Z,1005.64
2017-10-29T09:31:48.076Z,1005.57
2017-10-29T09:32:46.181Z,1005.31
2017-10-29T09:33:38.165Z,1005.59
2017-10-29T09:34:38.209Z,1004.96
2017-10-29T09:35:38.145Z,1004.91
2017-10-29T09:36:38.170Z,1005.06
2017-10-29T09:37:38.108Z,1004.90
2017-10-29T09:38:38.093Z,1004.99
2017-10-29T09:39:38.122Z,1005.79
2017-10-29T09:40:38.129Z,1005.68
2017-10-29T09:41:38.063Z,1005.21
2017-10-29T09:42:38.039Z,1005.77
2017-10-29T09:43:38.017Z,1005.95
2017-10-29T09:44:38.014Z,1005.23
2017-10-29T09:45:38.029Z,1005.47
2017-10-29T09:46:37.980Z,1005.82
2017-10-29T09:47:37.979Z,1005.74
2017-10-29T09:48:37.952Z,1005.69
2017-10-29T09:49:37.967Z,1005.75
2017-10-29T09:50:37.977Z,1005.66
2017-10-29T09:51:37.929Z,1004.88
2017-10-29T09:52:37.901Z,1005.83
2017-10-29T09:53:37.883Z,1005.96
2017-10-29T09:54:37.880Z,1005.79
2017-10-29T09:55:37.894Z,1005.94
2017-10-29T09:56:37.864Z,1005.94
2017-10-29T09:57:37.859Z,1005.15
2017-10-29T09:58:37.817Z,1005.96
2017-10-29T09:59:37.801Z,1005.88
2017-10-29T10:00:37.841Z,1005.97
2017-10-29T10:01:37.780Z,1006.12
2017-10-29T10:02:37.769Z,1006.08
2017-10-29T10:03:37.805Z,1005.98
2017-10-29T10:04:37.749Z,1005.56
2017-10-29T10:05:37.722Z,1006.17
2017-10-29T10:06:37.714Z,1006.29
2017-10-29T10:07:37.705Z,1006.42
2017-10-29T10:08:37.730Z,1006.43
2017-10-29T10:09:37.667Z,1006.07
2017-10-29T10:10:37.656Z,1005.64
2017-10-29T10:11:37.638Z,1005.67
2017-10-29T10:12:37.635Z,1005.59
2017-10-29T10:13:37.661Z,1005.66
2017-10-29T10:14:37.656Z,1005.57
2017-10-29T10:15:37.589Z,1005.70
2017-10-29T10:16:37.572Z,1006.12
2017-10-29T10:17:37.573Z,1005.74
2017-10-29T10:18:37.545Z,1005.78
2017-10-29T10:19:45.237Z,1005.77
2017-10-29T10:20:37.521Z,1005.76
2017-10-29T10:21:37.506Z,1005.69
2017-10-29T10:22:37.502Z,1005.72
2017-10-29T10:23:37.482Z,1005.84
2017-10-29T10:24:37.466Z,1005.87
2017-10-29T10:25:37.494Z,1005.88
2017-10-29T10:26:37.435Z,1006.00
2017-10-29T10:27:37.420Z,1006.10
2017-10-29T10:28:37.409Z,1006.14
2017-10-29T10:29:37.391Z,1006.10
2017-10-29T10:30:37.412Z,1006.10
2017-10-29T10:31:37.366Z,1006.21
2017-10-29T10:32:37.363Z,1006.15
2017-10-29T10:33:37.340Z,1006.30
2017-10-29T10:34:37.321Z,1006.22
2017-10-29T10:35:37.343Z,1006.25
2017-10-29T10:36:47.224Z,1006.41
2017-10-29T10:37:37.329Z,1006.46
2017-10-29T10:38:37.272Z,1006.32
2017-10-29T10:39:37.308Z,1006.25
2017-10-29T10:40:37.263Z,1006.36
2017-10-29T10:41:37.234Z,1006.45
2017-10-29T10:42:37.201Z,1006.45
2017-10-29T10:43:37.194Z,1006.36
2017-10-29T10:44:37.219Z,1006.31
2017-10-29T10:45:37.196Z,1006.41
2017-10-29T10:46:37.141Z,1006.40
2017-10-29T10:47:37.134Z,1006.35
2017-10-29T10:48:37.159Z,1006.36
2017-10-29T10:49:37.111Z,1006.39
2017-10-29T10:50:37.092Z,1006.55
2017-10-29T10:51:37.076Z,1006.53
2017-10-29T10:52:37.048Z,1006.68
2017-10-29T10:53:37.092Z,1006.65
2017-10-29T10:54:37.018Z,1006.43
2017-10-29T10:55:37.015Z,1006.48
2017-10-29T10:56:36.986Z,1006.46
2017-10-29T10:57:36.975Z,1006.54
2017-10-29T10:58:37.002Z,1006.46
2017-10-29T10:59:36.943Z,1006.32
2017-10-29T11:00:36.932Z,1006.40
2017-10-29T11:01:36.950Z,1006.47
2017-10-29T11:02:36.903Z,1006.22
2017-10-29T11:03:36.926Z,1006.27
2017-10-29T11:04:36.869Z,1006.25
2017-10-29T11:05:36.857Z,1006.23
2017-10-29T11:06:36.846Z,1006.38
2017-10-29T11:07:36.840Z,1006.52
2017-10-29T11:08:36.846Z,1006.55
2017-10-29T11:09:36.805Z,1006.58
2017-10-29T11:10:36.786Z,1006.55
2017-10-29T11:11:36.763Z,1006.57
2017-10-29T11:12:44.818Z,1006.36
2017-10-29T11:13:49.296Z,1006.28
2017-10-29T11:14:36.721Z,1006.44
2017-10-29T11:15:36.716Z,1006.40
2017-10-29T11:16:36.693Z,1006.49
2017-10-29T11:17:36.670Z,1006.35
2017-10-29T11:18:36.708Z,1006.35
2017-10-29T11:19:36.640Z,1006.49
2017-10-29T11:20:36.642Z,1006.47
2017-10-29T11:21:36.614Z,1006.48
2017-10-29T11:22:36.596Z,1006.65
2017-10-29T11:23:36.627Z,1006.61
2017-10-29T11:24:36.606Z,1006.74
2017-10-29T11:25:36.549Z,1006.75
2017-10-29T11:26:36.534Z,1006.72
2017-10-29T11:27:36.524Z,1006.58
2017-10-29T11:28:36.506Z,1006.51
2017-10-29T11:29:36.532Z,1006.55
2017-10-29T11:30:36.476Z,1006.52
2017-10-29T11:31:36.458Z,1006.57
2017-10-29T11:32:36.445Z,1006.57
2017-10-29T11:33:36.445Z,1006.71
2017-10-29T11:34:36.456Z,1006.78
2017-10-29T11:35:36.398Z,1006.89
2017-10-29T11:36:36.399Z,1006.75
2017-10-29T11:37:36.422Z,1006.58
2017-10-29T11:38:36.367Z,1006.60
2017-10-29T11:39:36.377Z,1006.67
2017-10-29T11:40:36.321Z,1006.80
2017-10-29T11:41:36.308Z,1006.84
2017-10-29T11:42:36.294Z,1006.75
2017-10-29T11:43:36.326Z,1006.91
2017-10-29T11:44:36.272Z,1007.01
2017-10-29T11:45:36.245Z,1006.73
2017-10-29T11:46:36.228Z,1006.65
2017-10-29T11:47:36.221Z,1006.78
2017-10-29T11:48:36.246Z,1006.80
2017-10-29T11:49:36.191Z,1006.83
2017-10-29T11:50:36.173Z,1006.80
2017-10-29T11:51:36.153Z,1006.86
2017-10-29T11:52:36.153Z,1006.85
2017-10-29T11:53:36.169Z,1006.80
2017-10-29T11:54:45.878Z,1006.73
2017-10-29T11:55:36.093Z,1006.78
2017-10-29T11:56:36.073Z,1006.79
2017-10-29T11:57:36.112Z,1006.77
2017-10-29T11:58:36.101Z,1006.83
2017-10-29T11:59:36.022Z,1006.89
2017-10-29T12:00:36.011Z,1006.86
2017-10-29T12:01:36.001Z,1006.90
2017-10-29T12:02:35.993Z,1006.88
2017-10-29T12:03:36.017Z,1006.87
2017-10-29T12:04:35.946Z,1006.93
2017-10-29T12:05:35.938Z,1006.88
2017-10-29T12:06:35.916Z,1006.85
2017-10-29T12:07:35.892Z,1006.90
2017-10-29T12:08:35.924Z,1006.89
2017-10-29T12:09:35.859Z,1006.91
2017-10-29T12:10:35.859Z,1006.92
2017-10-29T12:11:35.823Z,1006.93
2017-10-29T12:12:35.809Z,1006.95
2017-10-29T12:13:35.833Z,1007.01
2017-10-29T12:14:35.774Z,1007.06
2017-10-29T12:15:35.814Z,1007.03
2017-10-29T12:16:35.755Z,1007.01